Time;durP1;ratioP1;P1;durP2;ratioP2;P2;SDS_P1;SDS_P2;PMS_P1;PMS_P2;Temp;Humidity;BMP_temperature;BMP_pressure;BME280_temperature;BME280_humidity;BME280_pressure;Samples;Min_cycle;Max_cycle;Signal;HPM_P1;HPM_P2
2024/01/17 00:01:14;;;;;;;17.38;7.70;;;;;;;;;;5015700;28;20037;-82
2024/01/17 00:03:40;;;;;;;15.98;7.78;;;;;;;;;;5035440;28;20041;-82
2024/01/17 00:06:05;;;;;;;14.05;7.60;;;;;;;;;;5037842;28;20116;-81
2024/01/17 00:08:30;;;;;;;15.18;7.40;;;;;;;;;;5037944;28;20044;-82
2024/01/17 00:10:56;;;;;;;14.65;8.00;;;;;;;;;;5033827;28;20401;-82
2024/01/17 00:13:21;;;;;;;17.45;8.07;;;;;;;;;;5029064;28;20032;-83
2024/01/17 00:15:47;;;;;;;19.05;7.85;;;;;;;;;;5038150;28;20044;-82
2024/01/17 00:18:12;;;;;;;15.05;7.30;;;;;;;;;;5023586;28;20029;-82
2024/01/17 00:20:37;;;;;;;15.98;8.23;;;;;;;;;;5019192;28;20504;-82
2024/01/17 00:23:03;;;;;;;15.82;7.25;;;;;;;;;;5026775;28;20056;-82
2024/01/17 00:25:28;;;;;;;17.23;7.85;;;;;;;;;;5027219;28;20037;-82
2024/01/17 00:27:54;;;;;;;16.52;7.82;;;;;;;;;;5034725;28;20496;-82
2024/01/17 00:30:19;;;;;;;20.60;8.25;;;;;;;;;;5035684;28;20021;-83
2024/01/17 00:32:45;;;;;;;17.38;7.97;;;;;;;;;;5033738;28;20528;-83
2024/01/17 00:35:11;;;;;;;15.30;7.28;;;;;;;;;;5033146;28;20033;-83
2024/01/17 00:37:36;;;;;;;16.02;7.40;;;;;;;;;;5036288;28;20511;-82
2024/01/17 00:40:02;;;;;;;17.77;8.30;;;;;;;;;;5043224;28;20033;-82
2024/01/17 00:42:27;;;;;;;15.23;7.47;;;;;;;;;;5036683;28;20484;-82
2024/01/17 00:44:53;;;;;;;13.45;7.38;;;;;;;;;;5037860;28;20041;-83
2024/01/17 00:47:19;;;;;;;15.38;8.13;;;;;;;;;;5034144;28;20064;-83
2024/01/17 00:49:44;;;;;;;17.58;8.45;;;;;;;;;;5025441;28;20061;-82
2024/01/17 00:52:10;;;;;;;16.30;7.65;;;;;;;;;;5030540;28;20030;-83
2024/01/17 00:54:35;;;;;;;15.90;7.57;;;;;;;;;;5038301;28;20099;-82
2024/01/17 00:57:00;;;;;;;13.60;7.53;;;;;;;;;;5021013;28;20117;-82
2024/01/17 00:59:26;;;;;;;13.80;7.13;;;;;;;;;;5034453;28;20041;-82
2024/01/17 01:01:51;;;;;;;14.30;7.55;;;;;;;;;;5021478;28;20559;-82
2024/01/17 01:04:17;;;;;;;16.05;7.15;;;;;;;;;;5025624;28;20079;-83
2024/01/17 01:06:42;;;;;;;15.50;7.78;;;;;;;;;;5034309;28;20064;-82
2024/01/17 01:09:09;;;;;;;18.98;7.70;;;;;;;;;;5034289;28;20031;-82
2024/01/17 01:11:35;;;;;;;15.95;7.50;;;;;;;;;;5040576;28;20042;-82
2024/01/17 01:14:01;;;;;;;14.75;7.38;;;;;;;;;;5033695;28;20693;-82
2024/01/17 01:16:26;;;;;;;13.07;7.25;;;;;;;;;;5034205;28;20087;-82
2024/01/17 01:18:51;;;;;;;13.50;7.68;;;;;;;;;;5035696;28;20037;-82
2024/01/17 01:21:17;;;;;;;14.50;7.68;;;;;;;;;;5036611;28;20479;-82
2024/01/17 01:23:43;;;;;;;14.95;7.75;;;;;;;;;;5032904;28;20120;-82
2024/01/17 01:26:08;;;;;;;16.30;8.20;;;;;;;;;;5020001;28;20041;-82
2024/01/17 01:28:34;;;;;;;14.50;6.82;;;;;;;;;;5036296;28;20041;-82
2024/01/17 01:30:59;;;;;;;16.13;7.40;;;;;;;;;;5019943;28;20037;-83
2024/01/17 01:33:25;;;;;;;16.35;7.63;;;;;;;;;;5025956;28;20037;-83
2024/01/17 01:35:50;;;;;;;14.95;7.60;;;;;;;;;;5032591;28;20034;-81
2024/01/17 01:38:16;;;;;;;18.33;7.63;;;;;;;;;;5019682;28;20026;-81
2024/01/17 01:40:43;;;;;;;15.10;8.00;;;;;;;;;;5032300;28;20452;-82
2024/01/17 01:43:24;;;;;;;15.32;8.48;;;;;;;;;;5035507;28;20032;-82
2024/01/17 01:46:20;;;;;;;15.90;8.20;;;;;;;;;;5025452;28;20038;-82
2024/01/17 01:48:46;;;;;;;16.35;8.23;;;;;;;;;;5037701;28;20076;-82
2024/01/17 01:51:12;;;;;;;18.73;9.10;;;;;;;;;;5020344;28;20164;-82
2024/01/17 01:53:39;;;;;;;19.05;9.18;;;;;;;;;;5033790;28;20052;-82
2024/01/17 01:56:05;;;;;;;17.15;8.60;;;;;;;;;;5035627;28;20053;-82
2024/01/17 01:58:31;;;;;;;16.52;8.35;;;;;;;;;;5017684;28;20117;-82
2024/01/17 02:00:57;;;;;;;16.25;9.02;;;;;;;;;;5018672;28;20120;-82
2024/01/17 02:03:23;;;;;;;16.85;8.52;;;;;;;;;;5031838;28;20029;-81
2024/01/17 02:05:49;;;;;;;19.40;9.00;;;;;;;;;;5033332;28;20049;-82
2024/01/17 02:08:15;;;;;;;17.20;8.55;;;;;;;;;;5036699;28;20284;-82
2024/01/17 02:10:40;;;;;;;16.00;8.52;;;;;;;;;;5026197;28;20393;-82
2024/01/17 02:13:07;;;;;;;18.25;8.70;;;;;;;;;;5032924;28;20506;-82
2024/01/17 02:15:32;;;;;;;15.57;8.30;;;;;;;;;;5032287;28;20148;-82
2024/01/17 02:17:58;;;;;;;14.85;8.57;;;;;;;;;;5036467;28;20163;-83
2024/01/17 02:20:23;;;;;;;18.50;9.20;;;;;;;;;;5032674;28;20044;-82
2024/01/17 02:22:49;;;;;;;14.60;8.52;;;;;;;;;;5034534;28;20128;-82
2024/01/17 02:25:14;;;;;;;19.05;8.60;;;;;;;;;;5035636;28;20061;-82
2024/01/17 02:27:39;;;;;;;15.50;8.27;;;;;;;;;;5038301;28;20040;-82
2024/01/17 02:30:06;;;;;;;19.70;8.27;;;;;;;;;;5034780;28;20073;-82
2024/01/17 02:32:33;;;;;;;18.45;9.05;;;;;;;;;;5024937;28;20448;-82
2024/01/17 02:34:59;;;;;;;16.88;8.15;;;;;;;;;;5036903;28;20052;-82
2024/01/17 02:37:24;;;;;;;13.82;8.15;;;;;;;;;;5026943;28;20420;-82
2024/01/17 02:39:50;;;;;;;20.25;8.40;;;;;;;;;;5032640;28;20034;-82
2024/01/17 02:42:15;;;;;;;15.75;8.82;;;;;;;;;;5033555;28;20053;-83
2024/01/17 02:44:40;;;;;;;16.00;8.77;;;;;;;;;;5038151;28;20495;-83
2024/01/17 02:47:06;;;;;;;12.90;8.10;;;;;;;;;;5040426;28;20527;-82
2024/01/17 02:49:32;;;;;;;15.18;8.77;;;;;;;;;;5040803;28;20052;-82
2024/01/17 02:51:57;;;;;;;19.13;8.90;;;;;;;;;;5036356;28;20033;-82
2024/01/17 02:54:23;;;;;;;14.18;8.20;;;;;;;;;;5038233;28;20033;-83
2024/01/17 02:56:48;;;;;;;14.30;8.15;;;;;;;;;;5021225;28;20866;-82
2024/01/17 02:59:14;;;;;;;16.35;8.82;;;;;;;;;;5037511;28;20029;-82
2024/01/17 03:01:40;;;;;;;16.60;8.90;;;;;;;;;;5039608;28;20369;-82
2024/01/17 03:04:05;;;;;;;18.10;8.65;;;;;;;;;;5038222;28;20037;-82
2024/01/17 03:06:31;;;;;;;19.13;9.13;;;;;;;;;;5038486;28;20041;-83
2024/01/17 03:08:56;;;;;;;18.30;9.43;;;;;;;;;;5039592;28;20123;-82
2024/01/17 03:11:21;;;;;;;13.23;7.78;;;;;;;;;;5037467;28;20021;-82
2024/01/17 03:13:47;;;;;;;15.63;8.10;;;;;;;;;;5021330;28;20063;-82
2024/01/17 03:16:14;;;;;;;18.58;9.23;;;;;;;;;;5038886;28;20045;-83
2024/01/17 03:18:39;;;;;;;17.10;7.88;;;;;;;;;;5040412;28;20037;-82
2024/01/17 03:21:05;;;;;;;22.05;9.80;;;;;;;;;;5037811;28;20033;-82
2024/01/17 03:23:30;;;;;;;19.27;8.50;;;;;;;;;;5035443;28;20049;-82
2024/01/17 03:25:55;;;;;;;18.45;9.52;;;;;;;;;;5037726;28;20033;-82
2024/01/17 03:28:21;;;;;;;15.63;8.65;;;;;;;;;;5024105;28;20120;-82
2024/01/17 03:30:47;;;;;;;17.67;8.73;;;;;;;;;;5029736;28;20063;-82
2024/01/17 03:33:13;;;;;;;15.13;8.65;;;;;;;;;;5034921;28;20057;-82
2024/01/17 03:35:38;;;;;;;16.05;8.18;;;;;;;;;;5022673;28;20091;-82
2024/01/17 03:38:03;;;;;;;20.17;8.48;;;;;;;;;;5036061;28;20041;-82
2024/01/17 03:40:29;;;;;;;20.02;9.20;;;;;;;;;;5042796;28;20044;-82
2024/01/17 03:42:54;;;;;;;19.98;8.60;;;;;;;;;;5024964;28;20030;-83
2024/01/17 03:45:19;;;;;;;15.55;8.88;;;;;;;;;;5042439;28;20086;-82
2024/01/17 03:47:45;;;;;;;18.00;8.13;;;;;;;;;;5039254;28;20112;-82
2024/01/17 03:50:10;;;;;;;17.40;8.48;;;;;;;;;;5024964;28;20037;-81
2024/01/17 03:52:36;;;;;;;17.60;8.55;;;;;;;;;;5035064;28;20113;-84
2024/01/17 03:55:01;;;;;;;15.77;8.82;;;;;;;;;;5037202;28;20049;-82
2024/01/17 03:57:27;;;;;;;15.95;9.38;;;;;;;;;;5044123;28;20404;-82
2024/01/17 03:59:53;;;;;;;18.15;8.38;;;;;;;;;;5035643;28;20033;-82
2024/01/17 04:02:18;;;;;;;22.10;8.77;;;;;;;;;;5041185;28;20043;-83
2024/01/17 04:04:45;;;;;;;18.50;9.15;;;;;;;;;;5045519;28;20041;-84
2024/01/17 04:07:11;;;;;;;16.77;8.45;;;;;;;;;;5006005;28;20043;-83
2024/01/17 04:09:37;;;;;;;18.38;9.18;;;;;;;;;;5043659;28;20037;-83
2024/01/17 04:12:03;;;;;;;16.90;9.02;;;;;;;;;;5037480;28;20084;-83
2024/01/17 04:14:28;;;;;;;16.13;8.73;;;;;;;;;;5019231;28;20029;-83
2024/01/17 04:16:54;;;;;;;17.30;8.55;;;;;;;;;;5021805;28;20041;-83
2024/01/17 04:19:19;;;;;;;17.33;8.68;;;;;;;;;;5039518;28;20124;-83
2024/01/17 04:21:44;;;;;;;16.00;9.27;;;;;;;;;;5036646;28;20037;-83
2024/01/17 04:24:10;;;;;;;17.48;8.95;;;;;;;;;;5035132;28;20477;-83
2024/01/17 04:26:35;;;;;;;16.35;8.90;;;;;;;;;;5035786;28;20032;-83
2024/01/17 04:29:01;;;;;;;16.20;8.40;;;;;;;;;;5037257;28;20025;-83
2024/01/17 04:31:28;;;;;;;21.13;8.55;;;;;;;;;;5036689;28;20381;-83
2024/01/17 04:33:54;;;;;;;18.25;9.25;;;;;;;;;;5039590;28;20156;-84
2024/01/17 04:36:21;;;;;;;15.97;8.50;;;;;;;;;;5025148;28;20500;-82
2024/01/17 04:38:51;;;;;;;14.13;7.80;;;;;;;;;;5009682;28;20047;-83
2024/01/17 04:41:16;;;;;;;15.98;9.02;;;;;;;;;;5029591;28;20076;-83
2024/01/17 04:43:44;;;;;;;17.02;8.95;;;;;;;;;;5022888;28;20080;-83
2024/01/17 04:46:12;;;;;;;18.23;9.20;;;;;;;;;;5038806;28;20037;-83
2024/01/17 04:48:44;;;;;;;15.70;8.35;;;;;;;;;;5026780;28;20550;-83
2024/01/17 04:51:13;;;;;;;19.23;8.98;;;;;;;;;;5021510;28;20040;-83
2024/01/17 04:53:42;;;;;;;18.92;9.40;;;;;;;;;;5037158;28;20052;-82
2024/01/17 04:56:12;;;;;;;21.92;8.27;;;;;;;;;;5020494;28;20637;-83
2024/01/17 04:58:38;;;;;;;18.95;9.02;;;;;;;;;;5035684;28;20030;-85
2024/01/17 05:01:06;;;;;;;17.20;8.73;;;;;;;;;;5034150;28;20794;-85
2024/01/17 05:03:32;;;;;;;16.45;8.60;;;;;;;;;;5034174;28;20037;-86
2024/01/17 05:05:58;;;;;;;18.05;9.20;;;;;;;;;;5036867;28;20567;-88
2024/01/17 05:08:24;;;;;;;17.58;8.68;;;;;;;;;;5036351;28;20041;-86
2024/01/17 05:10:50;;;;;;;16.90;8.20;;;;;;;;;;5030228;28;20387;-87
2024/01/17 05:13:15;;;;;;;19.58;9.52;;;;;;;;;;5033455;28;20501;-88
2024/01/17 05:15:41;;;;;;;19.13;8.60;;;;;;;;;;5021486;28;20061;-86
2024/01/17 05:18:07;;;;;;;17.02;8.68;;;;;;;;;;5033899;28;20033;-86
2024/01/17 05:20:33;;;;;;;19.92;9.23;;;;;;;;;;5028580;28;20037;-86
2024/01/17 05:22:59;;;;;;;21.13;8.98;;;;;;;;;;5033460;28;20116;-85
2024/01/17 05:25:26;;;;;;;18.40;8.95;;;;;;;;;;5035088;28;20504;-85
2024/01/17 05:27:52;;;;;;;18.05;8.52;;;;;;;;;;5035716;28;20064;-86
2024/01/17 05:30:18;;;;;;;18.00;8.68;;;;;;;;;;5035456;28;20119;-84
2024/01/17 05:32:44;;;;;;;18.13;8.80;;;;;;;;;;5035122;28;20049;-87
2024/01/17 05:35:09;;;;;;;19.08;8.30;;;;;;;;;;5035411;28;20056;-88
2024/01/17 05:37:38;;;;;;;16.73;8.32;;;;;;;;;;5036145;28;20057;-87
2024/01/17 05:40:04;;;;;;;16.85;8.82;;;;;;;;;;5025616;28;20039;-87
2024/01/17 05:42:30;;;;;;;20.13;8.98;;;;;;;;;;5027920;28;20084;-87
2024/01/17 05:44:55;;;;;;;20.25;8.80;;;;;;;;;;5020028;28;20036;-87
2024/01/17 05:47:21;;;;;;;17.23;9.05;;;;;;;;;;5043068;28;20042;-85
2024/01/17 05:49:46;;;;;;;16.42;8.73;;;;;;;;;;5022645;28;20049;-87
2024/01/17 05:52:12;;;;;;;15.52;8.57;;;;;;;;;;5022018;28;20038;-86
2024/01/17 05:54:37;;;;;;;19.90;8.45;;;;;;;;;;5038488;28;20048;-86
2024/01/17 05:57:03;;;;;;;15.20;7.72;;;;;;;;;;5033591;28;20029;-86
2024/01/17 05:59:28;;;;;;;16.88;8.45;;;;;;;;;;5017190;28;20565;-86
2024/01/17 06:01:54;;;;;;;19.60;8.57;;;;;;;;;;5036323;28;20064;-86
2024/01/17 06:04:19;;;;;;;15.05;8.50;;;;;;;;;;5039275;28;20382;-86
2024/01/17 06:06:45;;;;;;;16.20;8.57;;;;;;;;;;5030350;28;20041;-87
2024/01/17 06:09:19;;;;;;;17.63;8.35;;;;;;;;;;5006601;28;20529;-88
2024/01/17 06:11:46;;;;;;;14.27;8.10;;;;;;;;;;5020949;28;20532;-87
2024/01/17 06:14:12;;;;;;;18.85;9.25;;;;;;;;;;5042823;28;20071;-87
2024/01/17 06:16:37;;;;;;;16.80;8.63;;;;;;;;;;5028852;28;20497;-86
2024/01/17 06:19:03;;;;;;;16.88;7.68;;;;;;;;;;5025618;28;20112;-87
2024/01/17 06:21:29;;;;;;;17.70;8.30;;;;;;;;;;5032580;28;20076;-86
2024/01/17 06:23:54;;;;;;;15.88;8.05;;;;;;;;;;5022068;28;20061;-85
2024/01/17 06:26:40;;;;;;;17.40;8.23;;;;;;;;;;5024403;28;20520;-85
2024/01/17 06:29:06;;;;;;;15.68;7.88;;;;;;;;;;4986443;28;20030;-85
2024/01/17 06:31:31;;;;;;;14.10;7.80;;;;;;;;;;4969326;28;20109;-87
2024/01/17 06:33:57;;;;;;;17.05;8.07;;;;;;;;;;4941157;28;20125;-85
2024/01/17 06:36:23;;;;;;;13.32;7.32;;;;;;;;;;4968590;28;20137;-85
2024/01/17 06:38:48;;;;;;;16.40;7.63;;;;;;;;;;4957936;28;20093;-86
2024/01/17 06:41:14;;;;;;;14.45;7.13;;;;;;;;;;4954983;28;20046;-84
2024/01/17 06:43:42;;;;;;;13.95;7.40;;;;;;;;;;4971780;28;21003;-86
2024/01/17 06:46:07;;;;;;;13.38;6.35;;;;;;;;;;4971482;28;20070;-85
2024/01/17 06:48:33;;;;;;;15.07;7.30;;;;;;;;;;4957297;28;20073;-84
2024/01/17 06:50:58;;;;;;;15.88;7.63;;;;;;;;;;4971521;28;20042;-86
2024/01/17 06:53:23;;;;;;;17.65;8.05;;;;;;;;;;4973008;28;20042;-86
2024/01/17 06:55:49;;;;;;;15.07;6.65;;;;;;;;;;4955511;28;20189;-86
2024/01/17 06:58:15;;;;;;;14.43;7.97;;;;;;;;;;4973202;28;20085;-86
2024/01/17 07:00:41;;;;;;;18.60;7.40;;;;;;;;;;4973789;28;20228;-86
2024/01/17 07:03:06;;;;;;;12.27;6.72;;;;;;;;;;4972763;28;20041;-86
2024/01/17 07:05:32;;;;;;;11.57;7.15;;;;;;;;;;4974287;28;20041;-85
2024/01/17 07:07:57;;;;;;;12.20;6.70;;;;;;;;;;5038234;28;20045;-86
2024/01/17 07:10:23;;;;;;;12.98;6.80;;;;;;;;;;5036358;28;20040;-86
2024/01/17 07:12:50;;;;;;;13.75;6.55;;;;;;;;;;5024339;28;20068;-86
2024/01/17 07:15:16;;;;;;;12.52;6.72;;;;;;;;;;5038274;28;20714;-87
2024/01/17 07:17:41;;;;;;;12.73;6.57;;;;;;;;;;5041509;28;20151;-87
2024/01/17 07:20:08;;;;;;;13.13;7.05;;;;;;;;;;5041997;28;20037;-86
2024/01/17 07:22:35;;;;;;;13.45;6.85;;;;;;;;;;5039715;28;20033;-85
2024/01/17 07:25:00;;;;;;;14.00;6.65;;;;;;;;;;5038581;28;20108;-86
2024/01/17 07:27:26;;;;;;;13.98;6.07;;;;;;;;;;5024504;28;20468;-85
2024/01/17 07:29:51;;;;;;;17.85;6.95;;;;;;;;;;5035597;28;20516;-85
2024/01/17 07:32:17;;;;;;;13.60;6.55;;;;;;;;;;5040038;28;20053;-87
2024/01/17 07:34:42;;;;;;;12.43;6.25;;;;;;;;;;5039252;28;20041;-88
2024/01/17 07:37:07;;;;;;;14.20;6.63;;;;;;;;;;5021322;28;20032;-86
2024/01/17 07:39:33;;;;;;;13.18;6.75;;;;;;;;;;5040322;28;20044;-87
2024/01/17 07:41:58;;;;;;;21.63;6.38;;;;;;;;;;5039311;28;21023;-87
2024/01/17 07:44:29;;;;;;;13.73;7.15;;;;;;;;;;5038020;28;20417;-86
2024/01/17 07:46:54;;;;;;;13.05;6.70;;;;;;;;;;5045846;28;20090;-85
2024/01/17 07:49:19;;;;;;;13.50;6.85;;;;;;;;;;5036070;28;20139;-85
2024/01/17 07:51:45;;;;;;;13.25;6.05;;;;;;;;;;5017848;28;20044;-86
2024/01/17 07:54:11;;;;;;;12.90;6.45;;;;;;;;;;5041303;28;20382;-85
2024/01/17 07:56:36;;;;;;;9.70;5.80;;;;;;;;;;5027339;28;20029;-86
2024/01/17 07:59:02;;;;;;;14.15;6.80;;;;;;;;;;5039501;28;20423;-86
2024/01/17 08:01:29;;;;;;;12.23;6.40;;;;;;;;;;5044530;28;20147;-87
2024/01/17 08:03:54;;;;;;;14.98;7.15;;;;;;;;;;5041721;28;20503;-86
2024/01/17 08:06:20;;;;;;;14.13;7.05;;;;;;;;;;5037694;28;20033;-86
2024/01/17 08:08:46;;;;;;;12.50;6.47;;;;;;;;;;5036460;28;20037;-88
2024/01/17 08:11:11;;;;;;;12.55;6.20;;;;;;;;;;5023814;28;20095;-86
2024/01/17 08:13:37;;;;;;;14.68;6.68;;;;;;;;;;5038700;28;20061;-85
2024/01/17 08:16:02;;;;;;;13.75;6.60;;;;;;;;;;5023544;28;20033;-86
2024/01/17 08:18:28;;;;;;;12.32;6.35;;;;;;;;;;5021475;28;20041;-86
2024/01/17 08:20:53;;;;;;;11.95;6.15;;;;;;;;;;5029132;28;24592;-85
2024/01/17 08:23:18;;;;;;;13.38;6.72;;;;;;;;;;5047265;28;20044;-85
2024/01/17 08:25:44;;;;;;;12.02;6.03;;;;;;;;;;5037250;28;20362;-84
2024/01/17 08:28:29;;;;;;;10.88;6.30;;;;;;;;;;5042256;28;20075;-88
2024/01/17 08:30:55;;;;;;;15.55;6.25;;;;;;;;;;4977952;28;20066;-86
2024/01/17 08:33:20;;;;;;;11.48;5.85;;;;;;;;;;4977700;28;20078;-86
2024/01/17 08:35:46;;;;;;;13.00;6.18;;;;;;;;;;4959975;28;20756;-86
2024/01/17 08:38:11;;;;;;;11.27;5.53;;;;;;;;;;4974323;28;20042;-86
2024/01/17 08:40:36;;;;;;;11.57;5.40;;;;;;;;;;4953840;28;20042;-88
2024/01/17 08:43:04;;;;;;;15.10;6.47;;;;;;;;;;4964372;28;20105;-86
2024/01/17 08:45:30;;;;;;;11.82;5.82;;;;;;;;;;4958689;28;20130;-88
2024/01/17 08:47:55;;;;;;;12.13;5.57;;;;;;;;;;4960577;28;20149;-86
2024/01/17 08:50:21;;;;;;;11.90;6.25;;;;;;;;;;4962540;28;20049;-86
2024/01/17 08:52:46;;;;;;;12.48;5.80;;;;;;;;;;4961908;28;20100;-86
2024/01/17 08:55:12;;;;;;;10.85;5.78;;;;;;;;;;4976433;28;20077;-85
2024/01/17 08:57:37;;;;;;;14.45;6.30;;;;;;;;;;4977677;28;20038;-88
2024/01/17 09:00:06;;;;;;;11.25;5.55;;;;;;;;;;4976968;28;20046;-87
2024/01/17 09:02:31;;;;;;;12.68;6.15;;;;;;;;;;4951808;28;20116;-87
2024/01/17 09:04:57;;;;;;;14.82;6.68;;;;;;;;;;4976679;28;20038;-85
2024/01/17 09:07:23;;;;;;;11.18;6.22;;;;;;;;;;4980685;28;20080;-86
2024/01/17 09:09:48;;;;;;;13.70;6.53;;;;;;;;;;5038889;28;20041;-87
2024/01/17 09:12:17;;;;;;;12.43;7.47;;;;;;;;;;5036582;28;20064;-88
2024/01/17 09:14:43;;;;;;;13.25;7.28;;;;;;;;;;5043086;28;20120;-87
2024/01/17 09:17:09;;;;;;;15.85;7.07;;;;;;;;;;5038297;28;20025;-88
2024/01/17 09:19:34;;;;;;;13.85;7.25;;;;;;;;;;5038599;28;20128;-88
2024/01/17 09:22:00;;;;;;;13.88;7.50;;;;;;;;;;5036451;28;20028;-86
2024/01/17 09:24:25;;;;;;;14.10;7.43;;;;;;;;;;5035536;28;20034;-85
2024/01/17 09:26:51;;;;;;;14.73;7.35;;;;;;;;;;5019814;28;20041;-86
2024/01/17 09:29:17;;;;;;;14.13;7.07;;;;;;;;;;5037311;28;20124;-87
2024/01/17 09:31:43;;;;;;;14.27;7.30;;;;;;;;;;5018652;28;20119;-86
2024/01/17 09:34:08;;;;;;;11.68;6.60;;;;;;;;;;5037736;28;20100;-86
2024/01/17 09:36:34;;;;;;;12.27;6.68;;;;;;;;;;5039441;28;20041;-86
2024/01/17 09:39:00;;;;;;;14.07;6.53;;;;;;;;;;5044357;28;20037;-85
2024/01/17 09:41:25;;;;;;;13.05;7.22;;;;;;;;;;5040552;28;20423;-85
2024/01/17 09:43:53;;;;;;;14.00;6.85;;;;;;;;;;5043212;28;20037;-87
2024/01/17 09:46:18;;;;;;;;;;;;;;;;;;5033879;28;20108;-86
2024/01/17 09:48:44;;;;;;;16.23;7.93;;;;;;;;;;5043465;28;20008;-86
2024/01/17 09:51:15;;;;;;;13.23;6.53;;;;;;;;;;5042304;28;20037;-86
2024/01/17 09:53:44;;;;;;;12.80;7.05;;;;;;;;;;5044759;28;20473;-85
2024/01/17 09:56:09;;;;;;;14.80;7.13;;;;;;;;;;5032287;28;20064;-86
2024/01/17 09:58:38;;;;;;;13.70;6.78;;;;;;;;;;5042857;28;20151;-85
2024/01/17 10:01:04;;;;;;;15.40;7.38;;;;;;;;;;5035782;28;20063;-85
2024/01/17 10:03:30;;;;;;;14.35;6.65;;;;;;;;;;5035016;28;20060;-86
2024/01/17 10:05:57;;;;;;;14.52;7.22;;;;;;;;;;5043568;28;20039;-87
2024/01/17 10:08:22;;;;;;;13.88;7.38;;;;;;;;;;5041481;28;20037;-86
2024/01/17 10:10:48;;;;;;;16.10;7.32;;;;;;;;;;5044286;28;20032;-87
2024/01/17 10:13:13;;;;;;;14.07;7.05;;;;;;;;;;5030817;28;20033;-88
2024/01/17 10:15:43;;;;;;;12.68;7.15;;;;;;;;;;5044668;28;20090;-86
2024/01/17 10:18:12;;;;;;;12.48;6.68;;;;;;;;;;5040638;28;20036;-85
2024/01/17 10:20:38;;;;;;;12.05;7.18;;;;;;;;;;5040542;28;20024;-86
2024/01/17 10:23:05;;;;;;;15.05;7.82;;;;;;;;;;5045549;28;20040;-86
2024/01/17 10:25:37;;;;;;;13.50;7.38;;;;;;;;;;5043190;28;20057;-86
2024/01/17 10:28:03;;;;;;;14.07;7.45;;;;;;;;;;5045119;28;20044;-85
2024/01/17 10:30:30;;;;;;;13.77;7.47;;;;;;;;;;5031596;28;20128;-86
2024/01/17 10:32:55;;;;;;;16.00;8.00;;;;;;;;;;5043932;28;20056;-87
2024/01/17 10:35:23;;;;;;;12.70;7.18;;;;;;;;;;5042042;28;20121;-88
2024/01/17 10:37:51;;;;;;;12.45;7.05;;;;;;;;;;5028965;28;20033;-87
2024/01/17 10:40:18;;;;;;;13.13;7.22;;;;;;;;;;5045062;28;20041;-87
2024/01/17 10:42:43;;;;;;;15.82;7.30;;;;;;;;;;5047552;28;20144;-86
2024/01/17 10:45:22;;;;;;;14.50;7.63;;;;;;;;;;5040561;28;20172;-86
2024/01/17 10:48:08;;;;;;;15.23;7.22;;;;;;;;;;5044266;28;20037;-86
2024/01/17 10:50:34;;;;;;;13.23;7.53;;;;;;;;;;4980219;28;20043;-85
2024/01/17 10:53:08;;;;;;;14.20;7.38;;;;;;;;;;4963869;28;20124;-86
2024/01/17 10:55:35;;;;;;;14.93;6.90;;;;;;;;;;4972554;28;20062;-85
2024/01/17 10:58:07;;;;;;;13.32;7.03;;;;;;;;;;4966020;28;20086;-86
2024/01/17 11:00:35;;;;;;;14.20;7.50;;;;;;;;;;4952168;28;20066;-87
2024/01/17 11:03:08;;;;;;;14.43;7.35;;;;;;;;;;4949425;28;20043;-85
2024/01/17 11:05:41;;;;;;;15.38;7.18;;;;;;;;;;4964669;28;20045;-86
2024/01/17 11:08:07;;;;;;;12.90;7.20;;;;;;;;;;4955896;28;20042;-85
2024/01/17 11:10:33;;;;;;;14.38;7.28;;;;;;;;;;4967089;28;20425;-86
2024/01/17 11:12:59;;;;;;;14.48;7.32;;;;;;;;;;4951436;28;20038;-86
2024/01/17 11:15:26;;;;;;;14.88;7.55;;;;;;;;;;4963851;28;20065;-85
2024/01/17 11:17:54;;;;;;;18.48;8.13;;;;;;;;;;4980061;28;20050;-85
2024/01/17 11:20:19;;;;;;;;;;;;;;;;;;4964265;28;20042;-85
2024/01/17 11:22:48;;;;;;;19.42;8.35;;;;;;;;;;4977366;28;19924;-88
2024/01/17 11:25:42;;;;;;;14.15;7.20;;;;;;;;;;4954548;28;20530;-84
2024/01/17 11:28:25;;;;;;;14.18;7.72;;;;;;;;;;5008795;28;20041;-84
2024/01/17 11:31:27;;;;;;;13.55;7.85;;;;;;;;;;5029731;28;20576;-87
2024/01/17 11:33:52;;;;;;;17.65;8.02;;;;;;;;;;5040727;28;20048;-90
2024/01/17 11:36:44;;;;;;;14.23;7.72;;;;;;;;;;5038013;28;20029;-85
2024/01/17 11:39:18;;;;;;;13.27;6.93;;;;;;;;;;5021026;28;20511;-84
2024/01/17 11:41:49;;;;;;;13.88;7.13;;;;;;;;;;5042133;28;20044;-85
2024/01/17 11:44:23;;;;;;;11.60;6.63;;;;;;;;;;5041088;28;20038;-88
2024/01/17 11:46:51;;;;;;;11.73;6.75;;;;;;;;;;5037820;28;20032;-84
2024/01/17 11:49:46;;;;;;;12.75;6.25;;;;;;;;;;5035695;28;20044;-85
2024/01/17 11:52:31;;;;;;;14.00;6.80;;;;;;;;;;5038948;28;20090;-84
2024/01/17 11:54:57;;;;;;;10.65;5.63;;;;;;;;;;5042759;28;20041;-85
2024/01/17 11:57:29;;;;;;;10.90;6.35;;;;;;;;;;5036910;28;20034;-85
2024/01/17 12:00:07;;;;;;;13.45;6.38;;;;;;;;;;5029532;28;20038;-85
2024/01/17 12:02:40;;;;;;;12.52;6.40;;;;;;;;;;5037070;28;20041;-86
2024/01/17 12:05:07;;;;;;;12.77;6.70;;;;;;;;;;5029303;28;20034;-85
2024/01/17 12:07:39;;;;;;;11.88;6.57;;;;;;;;;;5039997;28;20500;-85
2024/01/17 12:10:09;;;;;;;11.23;6.50;;;;;;;;;;5036559;28;20048;-84
2024/01/17 12:12:37;;;;;;;13.65;6.13;;;;;;;;;;5019429;28;20033;-82
2024/01/17 12:15:03;;;;;;;12.40;6.72;;;;;;;;;;5042025;28;20449;-86
2024/01/17 12:17:29;;;;;;;12.70;6.70;;;;;;;;;;5037490;28;20060;-85
2024/01/17 12:19:54;;;;;;;12.80;6.47;;;;;;;;;;5036472;28;20037;-86
2024/01/17 12:22:19;;;;;;;13.05;6.85;;;;;;;;;;5020036;28;20440;-84
2024/01/17 12:24:45;;;;;;;11.63;6.47;;;;;;;;;;5034049;28;20041;-85
2024/01/17 12:27:12;;;;;;;11.20;6.80;;;;;;;;;;5039964;28;20059;-86
2024/01/17 12:29:38;;;;;;;21.27;9.83;;;;;;;;;;5037871;28;20512;-85
2024/01/17 12:32:04;;;;;;;35.22;14.93;;;;;;;;;;5037703;28;20040;-88
2024/01/17 12:34:29;;;;;;;28.85;14.02;;;;;;;;;;5030936;28;20049;-85
2024/01/17 12:36:54;;;;;;;28.38;11.98;;;;;;;;;;5036912;28;20038;-83
2024/01/17 12:39:20;;;;;;;26.08;11.88;;;;;;;;;;5036216;28;20496;-85
2024/01/17 12:41:46;;;;;;;26.42;11.65;;;;;;;;;;5024320;28;20059;-86
2024/01/17 12:44:11;;;;;;;23.02;11.13;;;;;;;;;;5037603;28;20033;-86
2024/01/17 12:46:36;;;;;;;22.23;9.95;;;;;;;;;;5036731;28;20029;-85
2024/01/17 12:49:02;;;;;;;21.48;9.60;;;;;;;;;;5040066;28;20041;-88
2024/01/17 12:51:29;;;;;;;25.02;11.57;;;;;;;;;;5022237;28;20484;-85
2024/01/17 12:53:55;;;;;;;24.45;10.30;;;;;;;;;;5038756;28;20154;-85
2024/01/17 12:56:20;;;;;;;25.33;11.40;;;;;;;;;;5036978;28;20033;-87
2024/01/17 12:58:46;;;;;;;24.00;10.68;;;;;;;;;;5033796;28;20047;-86
2024/01/17 13:01:12;;;;;;;21.88;10.38;;;;;;;;;;5034754;28;20033;-87
2024/01/17 13:03:39;;;;;;;20.45;8.88;;;;;;;;;;5021682;28;20476;-84
2024/01/17 13:06:06;;;;;;;17.38;8.60;;;;;;;;;;5023128;28;20035;-85
2024/01/17 13:08:32;;;;;;;16.92;8.65;;;;;;;;;;5034990;28;20060;-84
2024/01/17 13:10:57;;;;;;;14.90;7.60;;;;;;;;;;5022400;28;20026;-87
2024/01/17 13:13:24;;;;;;;15.48;7.47;;;;;;;;;;5022576;28;20029;-88
2024/01/17 13:15:54;;;;;;;14.35;6.80;;;;;;;;;;5037561;28;20484;-86
2024/01/17 13:18:21;;;;;;;13.57;6.90;;;;;;;;;;5019564;28;20037;-85
2024/01/17 13:20:47;;;;;;;11.95;7.15;;;;;;;;;;5035016;28;20030;-85
2024/01/17 13:23:13;;;;;;;12.00;6.55;;;;;;;;;;5037641;28;20056;-85
2024/01/17 13:25:38;;;;;;;13.27;6.50;;;;;;;;;;5044419;28;20073;-85
2024/01/17 13:28:05;;;;;;;12.02;6.28;;;;;;;;;;5036501;28;20033;-87
2024/01/17 13:30:36;;;;;;;13.48;6.47;;;;;;;;;;5037036;28;20041;-85
2024/01/17 13:33:06;;;;;;;12.40;6.13;;;;;;;;;;5033887;28;20135;-86
2024/01/17 13:35:33;;;;;;;10.02;5.60;;;;;;;;;;5032696;28;20580;-86
2024/01/17 13:37:59;;;;;;;11.90;6.07;;;;;;;;;;5036303;28;20033;-85
2024/01/17 13:40:26;;;;;;;13.63;6.28;;;;;;;;;;5037847;28;25141;-84
2024/01/17 13:42:52;;;;;;;;;;;;;;;;;;5037762;28;20029;-87
2024/01/17 13:45:17;;;;;;;11.82;5.70;;;;;;;;;;5024360;28;19920;-85
2024/01/17 13:47:43;;;;;;;11.15;6.00;;;;;;;;;;5028454;28;20041;-87
2024/01/17 13:50:25;;;;;;;9.82;5.57;;;;;;;;;;5028963;28;20057;-86
2024/01/17 13:52:52;;;;;;;12.98;6.38;;;;;;;;;;5023887;28;20586;-85
2024/01/17 13:55:23;;;;;;;10.43;5.90;;;;;;;;;;5034971;28;20033;-87
2024/01/17 13:57:52;;;;;;;13.02;6.05;;;;;;;;;;5037859;28;20041;-85
2024/01/17 14:00:22;;;;;;;10.15;5.57;;;;;;;;;;5027234;28;20033;-84
2024/01/17 14:02:50;;;;;;;9.93;6.07;;;;;;;;;;5033804;28;20167;-85
2024/01/17 14:05:16;;;;;;;12.00;6.60;;;;;;;;;;5034811;28;20060;-86
2024/01/17 14:07:42;;;;;;;10.52;5.45;;;;;;;;;;5024241;28;20383;-86
2024/01/17 14:10:09;;;;;;;11.98;5.55;;;;;;;;;;5037186;28;20102;-85
2024/01/17 14:12:36;;;;;;;10.82;5.47;;;;;;;;;;5045561;28;20116;-85
2024/01/17 14:15:03;;;;;;;12.18;6.05;;;;;;;;;;5037136;28;20055;-86
2024/01/17 14:17:29;;;;;;;12.02;5.97;;;;;;;;;;5037579;28;20160;-85
2024/01/17 14:19:54;;;;;;;11.25;5.80;;;;;;;;;;5020983;28;20559;-84
2024/01/17 14:22:23;;;;;;;11.70;5.60;;;;;;;;;;5042684;28;20119;-86
2024/01/17 14:24:49;;;;;;;13.60;6.10;;;;;;;;;;5028739;28;20071;-84
2024/01/17 14:27:15;;;;;;;13.75;6.32;;;;;;;;;;5039502;28;20037;-85
2024/01/17 14:29:40;;;;;;;12.75;6.10;;;;;;;;;;5041233;28;20041;-85